Portada
METAR-TAF:

METAR-TAF

Aeroports :

Palmer, Alaska, Estats Units d'Amèrica

latitud: 61-36N, longitud: 149-05W, altitud: 74 m

Observació

L'informe es va fer fa 49 minuts, a les 22:53 UTC
Vent 4 kt amb direcció variable
Temperatura 18°C
Humitat 59%
Pressió 1003 hPa
Visibilitat: 16.1 km
Cel ennuvolat a una alçada de 3500 ft

METAR: PAAQ 092253Z VRB04KT 10SM BKN035 18/10 A2961 RMK AO2 SLP029 T01780100 $

Hora: 15:42 (23:42 UTC)

Pronòstic

L'informe es va fer fa 6 hores i 19 minuts, a les 17:23 UTC
Pronòstic vàlid del 09 a les 18 UTC al 10 a les 18 UTC
Vent 5 kt amb direcció variable
Visibilitat: 10 km
Escasses núvols a una alçada de 6000 ft
Cel ennuvolat a una alçada de 13000 ft
Cel cobert a una alçada de 20000 ft
xàfecs en les proximitats
A partir de les 10 a les 0400 UTC
Vent kt del Nord
Visibilitat: 10 km
Cel cobert a una alçada de 5000 ft
xàfecs de pluja

TAF: PAAQ 091723Z 0918/1018 VRB05KT P6SM VCSH FEW060 BKN130 OVC200 FM100400 00000KT P6SM -SHRA OVC050

Observacions i pronòstics meteorològics de més de 4000 aeroports (METAR i TAF).

Les estacions disponibles són els punts grocs i vermells al mapa.

Posi el ratolí al punt desitjat per veure el nom de l'estació.

Feu clic per veure les observacions i els pronòstics meteorològics.

Per canviar el mapa: feu clic els botons verds amb una creu de color negre per apropar; al botó verd amb un guió per allunyar la imatge; o en les fletxes verdes per a mapes adjacents.


METAR-TAF: